sensor_id;sensor_type;location;lat;lon;timestamp;temperature;humidity
65291;SHT30;51893;59.754;10.110;2022-09-09T00:00:47;14.35;62.72
65291;SHT30;51893;59.754;10.110;2022-09-09T00:03:36;14.37;62.72
65291;SHT30;51893;59.754;10.110;2022-09-09T00:06:28;14.38;62.81
65291;SHT30;51893;59.754;10.110;2022-09-09T00:09:10;14.37;62.99
65291;SHT30;51893;59.754;10.110;2022-09-09T00:11:48;14.36;63.05
65291;SHT30;51893;59.754;10.110;2022-09-09T00:17:16;14.36;63.13
65291;SHT30;51893;59.754;10.110;2022-09-09T00:19:56;14.35;63.18
65291;SHT30;51893;59.754;10.110;2022-09-09T00:22:39;14.35;63.15
65291;SHT30;51893;59.754;10.110;2022-09-09T00:28:45;14.35;63.32
65291;SHT30;51893;59.754;10.110;2022-09-09T00:31:30;14.35;63.44
65291;SHT30;51893;59.754;10.110;2022-09-09T00:34:03;14.32;63.50
65291;SHT30;51893;59.754;10.110;2022-09-09T00:36:47;14.32;63.56
65291;SHT30;51893;59.754;10.110;2022-09-09T00:39:40;14.32;63.51
65291;SHT30;51893;59.754;10.110;2022-09-09T00:42:15;14.33;63.67
65291;SHT30;51893;59.754;10.110;2022-09-09T00:44:53;14.31;63.65
65291;SHT30;51893;59.754;10.110;2022-09-09T00:56:36;14.28;64.03
65291;SHT30;51893;59.754;10.110;2022-09-09T00:59:36;14.28;63.99
65291;SHT30;51893;59.754;10.110;2022-09-09T01:02:31;14.26;64.00
65291;SHT30;51893;59.754;10.110;2022-09-09T01:14:41;14.29;64.20
65291;SHT30;51893;59.754;10.110;2022-09-09T01:17:22;14.31;64.19
65291;SHT30;51893;59.754;10.110;2022-09-09T01:22:44;14.34;64.20
65291;SHT30;51893;59.754;10.110;2022-09-09T01:28:13;14.33;64.25
65291;SHT30;51893;59.754;10.110;2022-09-09T01:30:48;14.30;64.34
65291;SHT30;51893;59.754;10.110;2022-09-09T01:33:17;14.29;64.40
65291;SHT30;51893;59.754;10.110;2022-09-09T01:38:21;14.27;64.54
65291;SHT30;51893;59.754;10.110;2022-09-09T01:40:52;14.25;64.61
65291;SHT30;51893;59.754;10.110;2022-09-09T01:43:21;14.23;64.73
65291;SHT30;51893;59.754;10.110;2022-09-09T01:45:52;14.20;64.73
65291;SHT30;51893;59.754;10.110;2022-09-09T01:48:23;14.20;64.76
65291;SHT30;51893;59.754;10.110;2022-09-09T01:50:52;14.18;64.98
65291;SHT30;51893;59.754;10.110;2022-09-09T01:53:20;14.14;65.10
65291;SHT30;51893;59.754;10.110;2022-09-09T02:04:37;14.10;65.30
65291;SHT30;51893;59.754;10.110;2022-09-09T02:07:38;14.13;65.31
65291;SHT30;51893;59.754;10.110;2022-09-09T02:10:12;14.16;65.31
65291;SHT30;51893;59.754;10.110;2022-09-09T02:13:20;14.15;65.39
65291;SHT30;51893;59.754;10.110;2022-09-09T02:18:48;14.10;65.55
65291;SHT30;51893;59.754;10.110;2022-09-09T02:21:22;14.06;65.62
65291;SHT30;51893;59.754;10.110;2022-09-09T02:23:56;14.07;65.60
65291;SHT30;51893;59.754;10.110;2022-09-09T02:26:27;14.05;65.69
65291;SHT30;51893;59.754;10.110;2022-09-09T02:28:56;14.03;65.76
65291;SHT30;51893;59.754;10.110;2022-09-09T02:31:28;14.03;65.70
65291;SHT30;51893;59.754;10.110;2022-09-09T02:33:58;14.02;65.84
65291;SHT30;51893;59.754;10.110;2022-09-09T02:36:31;13.99;65.95
65291;SHT30;51893;59.754;10.110;2022-09-09T02:39:02;13.97;66.04
65291;SHT30;51893;59.754;10.110;2022-09-09T02:41:35;13.96;66.14
65291;SHT30;51893;59.754;10.110;2022-09-09T02:44:13;13.96;66.13
65291;SHT30;51893;59.754;10.110;2022-09-09T02:47:08;13.98;66.14
65291;SHT30;51893;59.754;10.110;2022-09-09T02:49:44;13.98;66.33
65291;SHT30;51893;59.754;10.110;2022-09-09T02:58:19;13.97;66.29
65291;SHT30;51893;59.754;10.110;2022-09-09T03:00:49;13.93;66.41
65291;SHT30;51893;59.754;10.110;2022-09-09T03:03:19;13.92;66.37
65291;SHT30;51893;59.754;10.110;2022-09-09T03:05:49;13.91;66.40
65291;SHT30;51893;59.754;10.110;2022-09-09T03:08:17;13.89;66.45
65291;SHT30;51893;59.754;10.110;2022-09-09T03:10:45;13.90;66.45
65291;SHT30;51893;59.754;10.110;2022-09-09T03:13:13;13.88;66.51
65291;SHT30;51893;59.754;10.110;2022-09-09T03:15:42;13.88;66.56
65291;SHT30;51893;59.754;10.110;2022-09-09T03:18:10;13.86;66.63
65291;SHT30;51893;59.754;10.110;2022-09-09T03:20:38;13.87;66.62
65291;SHT30;51893;59.754;10.110;2022-09-09T03:23:05;13.87;66.70
65291;SHT30;51893;59.754;10.110;2022-09-09T03:25:37;13.88;66.83
65291;SHT30;51893;59.754;10.110;2022-09-09T03:28:05;13.89;66.86
65291;SHT30;51893;59.754;10.110;2022-09-09T03:30:33;13.90;66.91
65291;SHT30;51893;59.754;10.110;2022-09-09T03:33:01;13.89;67.05
65291;SHT30;51893;59.754;10.110;2022-09-09T03:35:29;13.89;66.95
65291;SHT30;51893;59.754;10.110;2022-09-09T03:37:57;13.88;66.92
65291;SHT30;51893;59.754;10.110;2022-09-09T03:40:24;13.83;66.98
65291;SHT30;51893;59.754;10.110;2022-09-09T03:42:52;13.79;67.09
65291;SHT30;51893;59.754;10.110;2022-09-09T03:45:20;13.79;67.25
65291;SHT30;51893;59.754;10.110;2022-09-09T03:47:49;13.74;67.30
65291;SHT30;51893;59.754;10.110;2022-09-09T03:50:17;13.71;67.32
65291;SHT30;51893;59.754;10.110;2022-09-09T03:52:45;13.68;67.24
65291;SHT30;51893;59.754;10.110;2022-09-09T03:55:14;13.64;67.16
65291;SHT30;51893;59.754;10.110;2022-09-09T03:57:41;13.63;67.16
65291;SHT30;51893;59.754;10.110;2022-09-09T04:00:10;13.63;67.11
65291;SHT30;51893;59.754;10.110;2022-09-09T04:02:39;13.65;67.10
65291;SHT30;51893;59.754;10.110;2022-09-09T04:05:08;13.64;67.02
65291;SHT30;51893;59.754;10.110;2022-09-09T04:07:35;13.64;67.03
65291;SHT30;51893;59.754;10.110;2022-09-09T04:10:03;13.63;66.99
65291;SHT30;51893;59.754;10.110;2022-09-09T04:12:32;13.63;66.92
65291;SHT30;51893;59.754;10.110;2022-09-09T04:15:02;13.60;66.90
65291;SHT30;51893;59.754;10.110;2022-09-09T04:17:30;13.56;67.05
65291;SHT30;51893;59.754;10.110;2022-09-09T04:19:58;13.54;67.09
65291;SHT30;51893;59.754;10.110;2022-09-09T04:22:25;13.51;67.10
65291;SHT30;51893;59.754;10.110;2022-09-09T04:24:53;13.51;67.11
65291;SHT30;51893;59.754;10.110;2022-09-09T04:27:21;13.50;67.19
65291;SHT30;51893;59.754;10.110;2022-09-09T04:29:48;13.46;67.20
65291;SHT30;51893;59.754;10.110;2022-09-09T04:32:16;13.45;67.23
65291;SHT30;51893;59.754;10.110;2022-09-09T04:34:44;13.47;67.29
65291;SHT30;51893;59.754;10.110;2022-09-09T04:37:13;13.47;67.37
65291;SHT30;51893;59.754;10.110;2022-09-09T04:39:41;13.47;67.40
65291;SHT30;51893;59.754;10.110;2022-09-09T04:42:09;13.47;67.36
65291;SHT30;51893;59.754;10.110;2022-09-09T04:44:36;13.46;67.42
65291;SHT30;51893;59.754;10.110;2022-09-09T04:47:04;13.46;67.42
65291;SHT30;51893;59.754;10.110;2022-09-09T04:49:32;13.44;67.39
65291;SHT30;51893;59.754;10.110;2022-09-09T04:52:00;13.41;67.43
65291;SHT30;51893;59.754;10.110;2022-09-09T04:54:29;13.40;67.43
65291;SHT30;51893;59.754;10.110;2022-09-09T04:56:57;13.39;67.55
65291;SHT30;51893;59.754;10.110;2022-09-09T04:59:24;13.40;67.56
65291;SHT30;51893;59.754;10.110;2022-09-09T05:01:52;13.38;67.63
65291;SHT30;51893;59.754;10.110;2022-09-09T05:04:22;13.37;67.56
65291;SHT30;51893;59.754;10.110;2022-09-09T05:06:50;13.39;67.50
65291;SHT30;51893;59.754;10.110;2022-09-09T05:09:18;13.41;67.57
65291;SHT30;51893;59.754;10.110;2022-09-09T05:11:46;13.39;67.67
65291;SHT30;51893;59.754;10.110;2022-09-09T05:14:13;13.36;67.60
65291;SHT30;51893;59.754;10.110;2022-09-09T05:16:42;13.32;67.76
65291;SHT30;51893;59.754;10.110;2022-09-09T05:19:12;13.27;67.88
65291;SHT30;51893;59.754;10.110;2022-09-09T05:21:40;13.23;67.98
65291;SHT30;51893;59.754;10.110;2022-09-09T05:24:08;13.19;68.08
65291;SHT30;51893;59.754;10.110;2022-09-09T05:26:37;13.15;68.26
65291;SHT30;51893;59.754;10.110;2022-09-09T05:29:05;13.13;68.33
65291;SHT30;51893;59.754;10.110;2022-09-09T05:31:33;13.13;68.31
65291;SHT30;51893;59.754;10.110;2022-09-09T05:34:01;13.15;68.30
65291;SHT30;51893;59.754;10.110;2022-09-09T05:36:30;13.16;68.21
65291;SHT30;51893;59.754;10.110;2022-09-09T05:38:58;13.16;68.21
65291;SHT30;51893;59.754;10.110;2022-09-09T05:41:26;13.20;68.20
65291;SHT30;51893;59.754;10.110;2022-09-09T05:43:54;13.21;68.31
65291;SHT30;51893;59.754;10.110;2022-09-09T05:46:23;13.20;68.20
65291;SHT30;51893;59.754;10.110;2022-09-09T05:48:52;13.20;68.35
65291;SHT30;51893;59.754;10.110;2022-09-09T05:51:25;13.21;68.24
65291;SHT30;51893;59.754;10.110;2022-09-09T05:53:57;13.24;68.20
65291;SHT30;51893;59.754;10.110;2022-09-09T05:56:27;13.26;68.30
65291;SHT30;51893;59.754;10.110;2022-09-09T05:58:56;13.28;68.11
65291;SHT30;51893;59.754;10.110;2022-09-09T06:01:25;13.31;68.02
65291;SHT30;51893;59.754;10.110;2022-09-09T06:03:57;13.33;67.90
65291;SHT30;51893;59.754;10.110;2022-09-09T06:06:27;13.34;67.86
65291;SHT30;51893;59.754;10.110;2022-09-09T06:09:05;13.35;67.91
65291;SHT30;51893;59.754;10.110;2022-09-09T06:11:37;13.35;67.91
65291;SHT30;51893;59.754;10.110;2022-09-09T06:14:07;13.35;67.85
65291;SHT30;51893;59.754;10.110;2022-09-09T06:16:36;13.35;67.92
65291;SHT30;51893;59.754;10.110;2022-09-09T06:19:10;13.36;67.77
65291;SHT30;51893;59.754;10.110;2022-09-09T06:21:40;13.36;67.68
65291;SHT30;51893;59.754;10.110;2022-09-09T06:24:08;13.39;67.68
65291;SHT30;51893;59.754;10.110;2022-09-09T06:26:37;13.40;67.57
65291;SHT30;51893;59.754;10.110;2022-09-09T06:29:08;13.41;67.41
65291;SHT30;51893;59.754;10.110;2022-09-09T06:31:37;13.41;67.39
65291;SHT30;51893;59.754;10.110;2022-09-09T06:34:06;13.42;67.28
65291;SHT30;51893;59.754;10.110;2022-09-09T06:36:37;13.41;67.19
65291;SHT30;51893;59.754;10.110;2022-09-09T06:39:06;13.46;67.13
65291;SHT30;51893;59.754;10.110;2022-09-09T06:41:41;13.48;67.05
65291;SHT30;51893;59.754;10.110;2022-09-09T06:44:10;13.48;67.03
65291;SHT30;51893;59.754;10.110;2022-09-09T06:46:39;13.50;66.99
65291;SHT30;51893;59.754;10.110;2022-09-09T06:49:08;13.51;66.84
65291;SHT30;51893;59.754;10.110;2022-09-09T06:51:37;13.54;66.82
65291;SHT30;51893;59.754;10.110;2022-09-09T06:54:10;13.55;66.60
65291;SHT30;51893;59.754;10.110;2022-09-09T06:56:39;13.58;66.52
65291;SHT30;51893;59.754;10.110;2022-09-09T06:59:10;13.63;66.39
65291;SHT30;51893;59.754;10.110;2022-09-09T07:01:40;13.67;66.41
65291;SHT30;51893;59.754;10.110;2022-09-09T07:04:22;13.73;66.37
65291;SHT30;51893;59.754;10.110;2022-09-09T07:06:50;13.76;66.37
65291;SHT30;51893;59.754;10.110;2022-09-09T07:09:20;13.73;65.66
65291;SHT30;51893;59.754;10.110;2022-09-09T07:11:48;13.73;65.67
65291;SHT30;51893;59.754;10.110;2022-09-09T07:14:21;13.76;65.98
65291;SHT30;51893;59.754;10.110;2022-09-09T07:16:50;13.81;65.85
65291;SHT30;51893;59.754;10.110;2022-09-09T07:19:17;13.81;65.65
65291;SHT30;51893;59.754;10.110;2022-09-09T07:21:46;13.82;65.22
65291;SHT30;51893;59.754;10.110;2022-09-09T07:24:13;13.82;64.87
65291;SHT30;51893;59.754;10.110;2022-09-09T07:26:41;13.81;64.80
65291;SHT30;51893;59.754;10.110;2022-09-09T07:29:09;13.80;64.67
65291;SHT30;51893;59.754;10.110;2022-09-09T07:31:47;13.80;64.65
65291;SHT30;51893;59.754;10.110;2022-09-09T07:34:15;13.83;64.66
65291;SHT30;51893;59.754;10.110;2022-09-09T07:36:43;13.87;64.29
65291;SHT30;51893;59.754;10.110;2022-09-09T07:39:12;13.91;64.39
65291;SHT30;51893;59.754;10.110;2022-09-09T07:41:42;13.97;64.32
65291;SHT30;51893;59.754;10.110;2022-09-09T07:44:14;14.00;64.09
65291;SHT30;51893;59.754;10.110;2022-09-09T07:46:46;14.01;64.15
65291;SHT30;51893;59.754;10.110;2022-09-09T07:49:15;14.06;64.07
65291;SHT30;51893;59.754;10.110;2022-09-09T07:51:52;14.11;63.82
65291;SHT30;51893;59.754;10.110;2022-09-09T07:54:20;14.15;63.78
65291;SHT30;51893;59.754;10.110;2022-09-09T07:56:50;14.19;63.66
65291;SHT30;51893;59.754;10.110;2022-09-09T07:59:19;14.19;63.48
65291;SHT30;51893;59.754;10.110;2022-09-09T08:01:48;14.25;63.74
65291;SHT30;51893;59.754;10.110;2022-09-09T08:04:22;14.26;62.95
65291;SHT30;51893;59.754;10.110;2022-09-09T08:06:53;14.27;63.10
65291;SHT30;51893;59.754;10.110;2022-09-09T08:09:26;14.30;62.92
65291;SHT30;51893;59.754;10.110;2022-09-09T08:11:59;14.30;62.82
65291;SHT30;51893;59.754;10.110;2022-09-09T08:14:28;14.33;63.06
65291;SHT30;51893;59.754;10.110;2022-09-09T08:16:57;14.35;62.66
65291;SHT30;51893;59.754;10.110;2022-09-09T08:19:25;14.39;62.91
65291;SHT30;51893;59.754;10.110;2022-09-09T08:21:56;14.42;62.76
65291;SHT30;51893;59.754;10.110;2022-09-09T08:24:24;14.46;62.67
65291;SHT30;51893;59.754;10.110;2022-09-09T08:26:52;14.47;62.35
65291;SHT30;51893;59.754;10.110;2022-09-09T08:29:20;14.50;62.44
65291;SHT30;51893;59.754;10.110;2022-09-09T08:31:52;14.53;62.44
65291;SHT30;51893;59.754;10.110;2022-09-09T08:34:25;14.55;62.33
65291;SHT30;51893;59.754;10.110;2022-09-09T08:36:56;14.59;62.37
65291;SHT30;51893;59.754;10.110;2022-09-09T08:39:25;14.63;62.20
65291;SHT30;51893;59.754;10.110;2022-09-09T08:50:36;14.68;61.06
65291;SHT30;51893;59.754;10.110;2022-09-09T08:55:44;14.63;61.10
65291;SHT30;51893;59.754;10.110;2022-09-09T08:58:31;14.63;61.17
65291;SHT30;51893;59.754;10.110;2022-09-09T09:11:54;14.84;61.09
65291;SHT30;51893;59.754;10.110;2022-09-09T09:14:30;14.90;61.31
65291;SHT30;51893;59.754;10.110;2022-09-09T09:17:06;14.93;61.16
65291;SHT30;51893;59.754;10.110;2022-09-09T09:19:42;14.92;60.88
65291;SHT30;51893;59.754;10.110;2022-09-09T09:25:21;14.84;60.87
65291;SHT30;51893;59.754;10.110;2022-09-09T09:27:57;14.81;60.91
65291;SHT30;51893;59.754;10.110;2022-09-09T09:30:29;14.78;61.03
65291;SHT30;51893;59.754;10.110;2022-09-09T09:33:03;14.70;60.36
65291;SHT30;51893;59.754;10.110;2022-09-09T09:36:13;14.66;60.75
65291;SHT30;51893;59.754;10.110;2022-09-09T09:38:56;14.65;60.72
65291;SHT30;51893;59.754;10.110;2022-09-09T09:41:47;14.64;60.82
65291;SHT30;51893;59.754;10.110;2022-09-09T09:47:15;14.73;60.98
65291;SHT30;51893;59.754;10.110;2022-09-09T09:49:55;14.81;61.32
65291;SHT30;51893;59.754;10.110;2022-09-09T09:52:29;14.91;61.33
65291;SHT30;51893;59.754;10.110;2022-09-09T09:55:03;14.99;61.16
65291;SHT30;51893;59.754;10.110;2022-09-09T09:57:39;15.02;60.98
65291;SHT30;51893;59.754;10.110;2022-09-09T10:00:14;15.07;60.99
65291;SHT30;51893;59.754;10.110;2022-09-09T10:02:45;15.10;60.48
65291;SHT30;51893;59.754;10.110;2022-09-09T10:05:19;15.14;60.61
65291;SHT30;51893;59.754;10.110;2022-09-09T10:08:04;15.22;60.52
65291;SHT30;51893;59.754;10.110;2022-09-09T10:10:48;15.28;60.21
65291;SHT30;51893;59.754;10.110;2022-09-09T10:19:42;15.22;59.89
65291;SHT30;51893;59.754;10.110;2022-09-09T10:25:04;15.30;59.73
65291;SHT30;51893;59.754;10.110;2022-09-09T10:31:33;15.41;59.72
65291;SHT30;51893;59.754;10.110;2022-09-09T10:43:01;15.56;58.79
65291;SHT30;51893;59.754;10.110;2022-09-09T10:45:41;15.53;58.83
65291;SHT30;51893;59.754;10.110;2022-09-09T10:57:04;15.84;58.42
65291;SHT30;51893;59.754;10.110;2022-09-09T10:59:46;15.91;58.41
65291;SHT30;51893;59.754;10.110;2022-09-09T11:02:26;16.00;57.83
65291;SHT30;51893;59.754;10.110;2022-09-09T11:07:44;16.33;57.33
65291;SHT30;51893;59.754;10.110;2022-09-09T11:10:34;16.49;56.70
65291;SHT30;51893;59.754;10.110;2022-09-09T11:13:18;16.52;56.10
65291;SHT30;51893;59.754;10.110;2022-09-09T11:15:58;16.47;55.88
65291;SHT30;51893;59.754;10.110;2022-09-09T11:18:44;16.44;55.43
65291;SHT30;51893;59.754;10.110;2022-09-09T11:21:25;16.50;55.93
65291;SHT30;51893;59.754;10.110;2022-09-09T11:24:03;16.68;55.80
65291;SHT30;51893;59.754;10.110;2022-09-09T11:26:42;16.90;55.41
65291;SHT30;51893;59.754;10.110;2022-09-09T11:29:27;17.14;55.03
65291;SHT30;51893;59.754;10.110;2022-09-09T11:35:30;17.11;54.61
65291;SHT30;51893;59.754;10.110;2022-09-09T11:41:14;16.84;54.27
65291;SHT30;51893;59.754;10.110;2022-09-09T11:43:51;16.73;54.11
65291;SHT30;51893;59.754;10.110;2022-09-09T11:46:21;16.64;54.41
65291;SHT30;51893;59.754;10.110;2022-09-09T11:49:03;16.65;54.62
65291;SHT30;51893;59.754;10.110;2022-09-09T11:51:34;16.70;54.95
65291;SHT30;51893;59.754;10.110;2022-09-09T11:54:21;16.68;54.22
65291;SHT30;51893;59.754;10.110;2022-09-09T11:57:02;16.65;54.77
65291;SHT30;51893;59.754;10.110;2022-09-09T11:59:32;16.68;54.71
65291;SHT30;51893;59.754;10.110;2022-09-09T12:02:01;16.59;54.53
65291;SHT30;51893;59.754;10.110;2022-09-09T12:04:56;16.52;54.69
65291;SHT30;51893;59.754;10.110;2022-09-09T12:07:51;16.40;54.83
65291;SHT30;51893;59.754;10.110;2022-09-09T12:15:50;16.35;55.39
65291;SHT30;51893;59.754;10.110;2022-09-09T12:27:01;16.58;55.72
65291;SHT30;51893;59.754;10.110;2022-09-09T12:29:47;16.64;55.59
65291;SHT30;51893;59.754;10.110;2022-09-09T12:32:30;16.59;55.30
65291;SHT30;51893;59.754;10.110;2022-09-09T12:37:54;16.57;55.24
65291;SHT30;51893;59.754;10.110;2022-09-09T12:40:29;16.67;55.36
65291;SHT30;51893;59.754;10.110;2022-09-09T12:43:16;16.74;55.36
65291;SHT30;51893;59.754;10.110;2022-09-09T12:45:48;16.81;55.21
65291;SHT30;51893;59.754;10.110;2022-09-09T12:48:32;16.82;55.08
65291;SHT30;51893;59.754;10.110;2022-09-09T12:51:07;16.90;54.99
65291;SHT30;51893;59.754;10.110;2022-09-09T12:53:56;16.99;54.78
65291;SHT30;51893;59.754;10.110;2022-09-09T12:56:27;17.12;54.94
65291;SHT30;51893;59.754;10.110;2022-09-09T12:58:59;17.34;55.79
65291;SHT30;51893;59.754;10.110;2022-09-09T13:01:31;17.44;54.16
65291;SHT30;51893;59.754;10.110;2022-09-09T13:04:00;17.50;53.82
65291;SHT30;51893;59.754;10.110;2022-09-09T13:06:29;17.60;53.36
65291;SHT30;51893;59.754;10.110;2022-09-09T13:09:00;17.58;53.33
65291;SHT30;51893;59.754;10.110;2022-09-09T13:11:34;17.51;52.83
65291;SHT30;51893;59.754;10.110;2022-09-09T13:14:16;17.44;53.02
65291;SHT30;51893;59.754;10.110;2022-09-09T13:17:00;17.39;53.26
65291;SHT30;51893;59.754;10.110;2022-09-09T13:19:34;17.34;53.05
65291;SHT30;51893;59.754;10.110;2022-09-09T13:27:40;17.21;53.64
65291;SHT30;51893;59.754;10.110;2022-09-09T13:30:34;17.27;53.39
65291;SHT30;51893;59.754;10.110;2022-09-09T13:35:45;17.41;53.38
65291;SHT30;51893;59.754;10.110;2022-09-09T13:38:27;17.40;53.27
65291;SHT30;51893;59.754;10.110;2022-09-09T13:40:59;17.43;53.54
65291;SHT30;51893;59.754;10.110;2022-09-09T13:43:36;17.44;53.25
65291;SHT30;51893;59.754;10.110;2022-09-09T13:49:18;17.47;53.23
65291;SHT30;51893;59.754;10.110;2022-09-09T13:51:50;17.50;53.05
65291;SHT30;51893;59.754;10.110;2022-09-09T13:54:21;17.51;53.27
65291;SHT30;51893;59.754;10.110;2022-09-09T13:56:50;17.48;52.68
65291;SHT30;51893;59.754;10.110;2022-09-09T13:59:19;17.36;52.30
65291;SHT30;51893;59.754;10.110;2022-09-09T14:01:47;17.30;52.93
65291;SHT30;51893;59.754;10.110;2022-09-09T14:04:16;17.32;53.03
65291;SHT30;51893;59.754;10.110;2022-09-09T14:06:44;17.34;53.19
65291;SHT30;51893;59.754;10.110;2022-09-09T14:09:13;17.36;53.08
65291;SHT30;51893;59.754;10.110;2022-09-09T14:11:44;17.37;53.22
65291;SHT30;51893;59.754;10.110;2022-09-09T14:14:15;17.37;53.18
65291;SHT30;51893;59.754;10.110;2022-09-09T14:16:43;17.36;53.28
65291;SHT30;51893;59.754;10.110;2022-09-09T14:19:11;17.36;53.14
65291;SHT30;51893;59.754;10.110;2022-09-09T14:21:41;17.35;53.12
65291;SHT30;51893;59.754;10.110;2022-09-09T14:24:09;17.34;53.12
65291;SHT30;51893;59.754;10.110;2022-09-09T14:26:37;17.31;53.10
65291;SHT30;51893;59.754;10.110;2022-09-09T14:29:05;17.33;53.23
65291;SHT30;51893;59.754;10.110;2022-09-09T14:31:33;17.38;53.40
65291;SHT30;51893;59.754;10.110;2022-09-09T14:34:01;17.43;53.56
65291;SHT30;51893;59.754;10.110;2022-09-09T14:36:28;17.43;53.09
65291;SHT30;51893;59.754;10.110;2022-09-09T14:38:57;17.41;52.68
65291;SHT30;51893;59.754;10.110;2022-09-09T14:41:26;17.40;53.21
65291;SHT30;51893;59.754;10.110;2022-09-09T14:43:54;17.39;52.85
65291;SHT30;51893;59.754;10.110;2022-09-09T14:46:22;17.34;53.10
65291;SHT30;51893;59.754;10.110;2022-09-09T14:48:50;17.37;53.12
65291;SHT30;51893;59.754;10.110;2022-09-09T14:51:24;17.34;52.90
65291;SHT30;51893;59.754;10.110;2022-09-09T14:53:55;17.28;52.72
65291;SHT30;51893;59.754;10.110;2022-09-09T14:56:30;17.23;52.90
65291;SHT30;51893;59.754;10.110;2022-09-09T14:59:03;17.17;52.95
65291;SHT30;51893;59.754;10.110;2022-09-09T15:01:31;17.18;53.26
65291;SHT30;51893;59.754;10.110;2022-09-09T15:04:02;17.17;53.30
65291;SHT30;51893;59.754;10.110;2022-09-09T15:06:33;17.15;53.21
65291;SHT30;51893;59.754;10.110;2022-09-09T15:09:06;17.11;53.43
65291;SHT30;51893;59.754;10.110;2022-09-09T15:11:34;17.08;53.49
65291;SHT30;51893;59.754;10.110;2022-09-09T15:14:05;17.03;53.42
65291;SHT30;51893;59.754;10.110;2022-09-09T15:16:36;16.99;53.46
65291;SHT30;51893;59.754;10.110;2022-09-09T15:19:05;16.95;53.28
65291;SHT30;51893;59.754;10.110;2022-09-09T15:21:35;16.94;53.62
65291;SHT30;51893;59.754;10.110;2022-09-09T15:24:05;16.89;53.84
65291;SHT30;51893;59.754;10.110;2022-09-09T15:26:35;16.85;53.72
65291;SHT30;51893;59.754;10.110;2022-09-09T15:29:05;16.85;54.07
65291;SHT30;51893;59.754;10.110;2022-09-09T15:31:35;16.84;54.13
65291;SHT30;51893;59.754;10.110;2022-09-09T15:34:05;16.82;53.82
65291;SHT30;51893;59.754;10.110;2022-09-09T15:36:35;16.82;53.89
65291;SHT30;51893;59.754;10.110;2022-09-09T15:39:07;16.82;54.06
65291;SHT30;51893;59.754;10.110;2022-09-09T15:41:40;16.80;54.16
65291;SHT30;51893;59.754;10.110;2022-09-09T15:44:08;16.76;54.01
65291;SHT30;51893;59.754;10.110;2022-09-09T15:46:39;16.73;54.08
65291;SHT30;51893;59.754;10.110;2022-09-09T15:49:17;16.71;54.25
65291;SHT30;51893;59.754;10.110;2022-09-09T15:51:53;16.69;54.28
65291;SHT30;51893;59.754;10.110;2022-09-09T15:54:31;16.67;54.30
65291;SHT30;51893;59.754;10.110;2022-09-09T15:57:02;16.67;54.68
65291;SHT30;51893;59.754;10.110;2022-09-09T15:59:33;16.69;54.80
65291;SHT30;51893;59.754;10.110;2022-09-09T16:02:02;16.70;54.91
65291;SHT30;51893;59.754;10.110;2022-09-09T16:04:32;16.72;54.72
65291;SHT30;51893;59.754;10.110;2022-09-09T16:07:02;16.70;54.82
65291;SHT30;51893;59.754;10.110;2022-09-09T16:09:32;16.70;55.04
65291;SHT30;51893;59.754;10.110;2022-09-09T16:12:03;16.67;55.19
65291;SHT30;51893;59.754;10.110;2022-09-09T16:14:39;16.66;55.26
65291;SHT30;51893;59.754;10.110;2022-09-09T16:17:07;16.66;55.18
65291;SHT30;51893;59.754;10.110;2022-09-09T16:19:35;16.63;55.24
65291;SHT30;51893;59.754;10.110;2022-09-09T16:22:03;16.62;55.46
65291;SHT30;51893;59.754;10.110;2022-09-09T16:24:33;16.60;55.50
65291;SHT30;51893;59.754;10.110;2022-09-09T16:27:01;16.60;55.64
65291;SHT30;51893;59.754;10.110;2022-09-09T16:29:29;16.59;55.54
65291;SHT30;51893;59.754;10.110;2022-09-09T16:31:57;16.55;55.61
65291;SHT30;51893;59.754;10.110;2022-09-09T16:34:31;16.52;55.69
65291;SHT30;51893;59.754;10.110;2022-09-09T16:37:01;16.50;55.83
65291;SHT30;51893;59.754;10.110;2022-09-09T16:39:29;16.55;56.00
65291;SHT30;51893;59.754;10.110;2022-09-09T16:41:57;16.66;55.99
65291;SHT30;51893;59.754;10.110;2022-09-09T16:44:25;16.71;55.74
65291;SHT30;51893;59.754;10.110;2022-09-09T16:46:53;16.68;55.85
65291;SHT30;51893;59.754;10.110;2022-09-09T16:49:27;16.67;55.97
65291;SHT30;51893;59.754;10.110;2022-09-09T16:51:59;16.63;56.05
65291;SHT30;51893;59.754;10.110;2022-09-09T16:54:27;16.58;56.08
65291;SHT30;51893;59.754;10.110;2022-09-09T16:56:56;16.53;56.13
65291;SHT30;51893;59.754;10.110;2022-09-09T16:59:26;16.48;55.96
65291;SHT30;51893;59.754;10.110;2022-09-09T17:01:54;16.43;56.04
65291;SHT30;51893;59.754;10.110;2022-09-09T17:04:24;16.41;56.07
65291;SHT30;51893;59.754;10.110;2022-09-09T17:06:55;16.38;56.06
65291;SHT30;51893;59.754;10.110;2022-09-09T17:09:25;16.36;56.22
65291;SHT30;51893;59.754;10.110;2022-09-09T17:11:57;16.35;56.57
65291;SHT30;51893;59.754;10.110;2022-09-09T17:14:25;16.34;56.80
65291;SHT30;51893;59.754;10.110;2022-09-09T17:16:54;16.31;56.65
65291;SHT30;51893;59.754;10.110;2022-09-09T17:19:21;16.31;56.67
65291;SHT30;51893;59.754;10.110;2022-09-09T17:21:49;16.30;56.49
65291;SHT30;51893;59.754;10.110;2022-09-09T17:24:37;16.29;56.49
65291;SHT30;51893;59.754;10.110;2022-09-09T17:27:06;16.28;56.45
65291;SHT30;51893;59.754;10.110;2022-09-09T17:29:36;16.23;56.52
65291;SHT30;51893;59.754;10.110;2022-09-09T17:32:05;16.21;56.76
65291;SHT30;51893;59.754;10.110;2022-09-09T17:34:35;16.16;56.40
65291;SHT30;51893;59.754;10.110;2022-09-09T17:37:03;16.15;56.39
65291;SHT30;51893;59.754;10.110;2022-09-09T17:39:33;16.12;56.24
65291;SHT30;51893;59.754;10.110;2022-09-09T17:42:01;16.10;56.27
65291;SHT30;51893;59.754;10.110;2022-09-09T17:44:29;16.07;56.21
65291;SHT30;51893;59.754;10.110;2022-09-09T17:46:59;16.05;56.24
65291;SHT30;51893;59.754;10.110;2022-09-09T17:49:28;16.01;56.11
65291;SHT30;51893;59.754;10.110;2022-09-09T17:51:56;15.97;56.30
65291;SHT30;51893;59.754;10.110;2022-09-09T17:54:23;15.94;56.29
65291;SHT30;51893;59.754;10.110;2022-09-09T17:56:51;15.91;56.41
65291;SHT30;51893;59.754;10.110;2022-09-09T17:59:19;15.88;56.44
65291;SHT30;51893;59.754;10.110;2022-09-09T18:01:47;15.85;56.52
65291;SHT30;51893;59.754;10.110;2022-09-09T18:04:17;15.82;56.56
65291;SHT30;51893;59.754;10.110;2022-09-09T18:06:48;15.79;56.46
65291;SHT30;51893;59.754;10.110;2022-09-09T18:09:20;15.78;56.47
65291;SHT30;51893;59.754;10.110;2022-09-09T18:11:52;15.77;56.54
65291;SHT30;51893;59.754;10.110;2022-09-09T18:14:28;15.77;56.48